createdAt,value
2022-10-14T00:01:24.595Z,96779.94
2022-10-14T00:03:55.583Z,96778.13
2022-10-14T00:06:26.331Z,96772.72
2022-10-14T00:08:55.280Z,96772.56
2022-10-14T00:11:25.956Z,96776.38
2022-10-14T00:13:56.742Z,96779.63
2022-10-14T00:16:29.968Z,96774.09
2022-10-14T00:18:59.637Z,96776.84
2022-10-14T00:21:29.295Z,96779.38
2022-10-14T00:23:58.248Z,96779.72
2022-10-14T00:26:30.792Z,96779.50
2022-10-14T00:29:00.435Z,96779.84
2022-10-14T00:31:32.167Z,96785.03
2022-10-14T00:34:02.082Z,96783.97
2022-10-14T00:36:30.275Z,96779.38
2022-10-14T00:38:58.488Z,96791.25
2022-10-14T00:41:30.264Z,96782.59
2022-10-14T00:44:02.670Z,96780.19
2022-10-14T00:46:34.267Z,96781.13
2022-10-14T00:49:09.719Z,96780.53
2022-10-14T00:51:39.724Z,96774.44
2022-10-14T00:54:08.993Z,96779.97
2022-10-14T00:56:38.042Z,96781.00
2022-10-14T00:59:12.736Z,96780.75
2022-10-14T01:01:40.964Z,96770.50
2022-10-14T01:04:10.376Z,96780.53
2022-10-14T01:06:48.547Z,96785.38
2022-10-14T01:09:28.294Z,96782.38
2022-10-14T01:12:27.962Z,96782.72
2022-10-14T01:15:06.309Z,96788.03
2022-10-14T01:17:49.495Z,96789.16
2022-10-14T01:20:50.451Z,96784.56
2022-10-14T01:23:54.367Z,96786.03
2022-10-14T01:26:48.059Z,96785.25
2022-10-14T01:29:33.194Z,96788.81
2022-10-14T01:32:07.668Z,96781.22
2022-10-14T01:34:43.644Z,96773.50
2022-10-14T01:37:18.776Z,96774.78
2022-10-14T01:39:55.366Z,96771.31
2022-10-14T01:42:28.103Z,96772.34
2022-10-14T01:45:03.283Z,96775.56
2022-10-14T01:47:36.511Z,96769.47
2022-10-14T01:50:10.569Z,96768.66
2022-10-14T01:52:44.879Z,96772.91
2022-10-14T01:55:20.063Z,96767.06
2022-10-14T01:57:51.800Z,96767.84
2022-10-14T02:00:20.336Z,96769.25
2022-10-14T02:02:49.786Z,96773.06
2022-10-14T02:05:23.196Z,96771.66
2022-10-14T02:07:58.377Z,96769.69
2022-10-14T02:10:42.413Z,96763.03
2022-10-14T02:13:29.349Z,96761.06
2022-10-14T02:16:09.630Z,96774.41
2022-10-14T02:18:49.356Z,96762.53
2022-10-14T02:21:25.402Z,96764.28
2022-10-14T02:24:00.216Z,96752.88
2022-10-14T02:26:29.399Z,96755.97
2022-10-14T02:28:59.185Z,96746.66
2022-10-14T02:31:30.408Z,96742.97
2022-10-14T02:34:06.361Z,96737.00
2022-10-14T02:36:38.540Z,96734.69
2022-10-14T02:39:08.852Z,96724.44
2022-10-14T02:41:39.631Z,96718.56
2022-10-14T02:44:09.397Z,96720.41
2022-10-14T02:46:39.937Z,96719.69
2022-10-14T02:49:11.708Z,96713.94
2022-10-14T02:51:40.143Z,96714.75
2022-10-14T02:54:12.378Z,96723.28
2022-10-14T02:56:41.006Z,96705.78
2022-10-14T02:59:09.060Z,96708.66
2022-10-14T03:01:37.977Z,96698.16
2022-10-14T03:04:08.195Z,96694.28
2022-10-14T03:06:38.607Z,96689.75
2022-10-14T03:09:06.756Z,96690.91
2022-10-14T03:11:37.634Z,96688.16
2022-10-14T03:14:08.778Z,96690.59
2022-10-14T03:16:37.856Z,96687.94
2022-10-14T03:19:06.849Z,96692.19
2022-10-14T03:21:44.405Z,96691.63
2022-10-14T03:24:18.997Z,96687.00
2022-10-14T03:26:50.793Z,96682.41
2022-10-14T03:29:25.093Z,96675.03
2022-10-14T03:32:02.140Z,96677.47
2022-10-14T03:34:47.665Z,96673.88
2022-10-14T03:37:22.756Z,96670.19
2022-10-14T03:39:53.008Z,96661.44
2022-10-14T03:42:21.543Z,96659.72
2022-10-14T03:44:51.156Z,96661.00
2022-10-14T03:47:28.935Z,96652.59
2022-10-14T03:49:57.087Z,96663.06
2022-10-14T03:52:52.121Z,96656.28
2022-10-14T03:55:28.541Z,96649.47
2022-10-14T03:57:57.359Z,96650.28
2022-10-14T04:00:25.463Z,96646.13
2022-10-14T04:03:12.017Z,96647.75
2022-10-14T04:05:41.699Z,96644.53
2022-10-14T04:08:15.509Z,96638.19
2022-10-14T04:10:53.789Z,96639.47
2022-10-14T04:13:23.099Z,96643.81
2022-10-14T04:15:51.182Z,96637.84
2022-10-14T04:18:24.573Z,96634.38
2022-10-14T04:20:56.131Z,96629.44
2022-10-14T04:23:27.610Z,96625.63
2022-10-14T04:26:04.253Z,96628.59
2022-10-14T04:28:32.942Z,96618.13
2022-10-14T04:31:09.077Z,96625.56
2022-10-14T04:33:49.230Z,96617.06
2022-10-14T04:36:23.499Z,96621.00
2022-10-14T04:38:53.102Z,96619.50
2022-10-14T04:41:21.200Z,96617.88
2022-10-14T04:43:51.059Z,96617.31
2022-10-14T04:46:33.843Z,96613.84
2022-10-14T04:49:01.865Z,96615.13
2022-10-14T04:51:34.942Z,96612.47
2022-10-14T04:54:19.249Z,96612.47
2022-10-14T04:56:54.011Z,96610.03
2022-10-14T04:59:22.106Z,96608.66
2022-10-14T05:02:10.380Z,96600.94
2022-10-14T05:04:43.189Z,96594.00
2022-10-14T05:07:12.157Z,96594.00
2022-10-14T05:09:46.306Z,96591.81
2022-10-14T05:12:29.042Z,96580.22
2022-10-14T05:15:00.986Z,96572.72
2022-10-14T05:17:39.208Z,96575.97
2022-10-14T05:20:11.983Z,96578.94
2022-10-14T05:22:41.671Z,96578.63
2022-10-14T05:25:11.375Z,96572.72
2022-10-14T05:27:39.538Z,96569.91
2022-10-14T05:30:09.638Z,96570.97
2022-10-14T05:32:43.314Z,96570.97
2022-10-14T05:35:11.840Z,96563.38
2022-10-14T05:37:41.742Z,96561.53
2022-10-14T05:40:12.502Z,96563.72
2022-10-14T05:42:40.721Z,96557.59
2022-10-14T05:45:10.872Z,96557.59
2022-10-14T05:47:46.383Z,96561.38
2022-10-14T05:50:18.615Z,96560.59
2022-10-14T05:52:48.337Z,96552.28
2022-10-14T05:55:27.054Z,96558.88
2022-10-14T05:57:59.391Z,96557.28
2022-10-14T06:00:33.743Z,96557.84
2022-10-14T06:03:07.233Z,96558.41
2022-10-14T06:05:38.377Z,96560.84
2022-10-14T06:08:06.986Z,96563.16
2022-10-14T06:10:39.316Z,96563.47
2022-10-14T06:13:07.398Z,96554.94
2022-10-14T06:15:39.253Z,96565.81
2022-10-14T06:18:12.358Z,96569.72
2022-10-14T06:20:40.479Z,96569.16
2022-10-14T06:23:08.560Z,96562.25
2022-10-14T06:25:39.189Z,96559.34
2022-10-14T06:28:07.320Z,96562.00
2022-10-14T06:30:35.446Z,96559.09
2022-10-14T06:33:03.537Z,96558.31
2022-10-14T06:35:31.576Z,96565.53
2022-10-14T06:37:59.778Z,96570.06
2022-10-14T06:40:27.878Z,96565.81
2022-10-14T06:42:59.596Z,96567.19
2022-10-14T06:45:27.730Z,96554.72
2022-10-14T06:47:55.821Z,96556.34
2022-10-14T06:50:23.955Z,96550.91
2022-10-14T06:52:52.013Z,96560.69
2022-10-14T06:55:20.046Z,96553.56
2022-10-14T06:57:48.110Z,96557.81
2022-10-14T07:00:19.052Z,96560.47
2022-10-14T07:02:47.169Z,96558.28
2022-10-14T07:05:15.384Z,96561.81
2022-10-14T07:07:43.510Z,96558.47
2022-10-14T07:10:11.546Z,96555.25
2022-10-14T07:12:39.617Z,96562.16
2022-10-14T07:15:09.847Z,96559.75
2022-10-14T07:17:39.597Z,96555.81
2022-10-14T07:20:09.017Z,96559.03
2022-10-14T07:22:38.777Z,96559.59
2022-10-14T07:25:08.954Z,96558.78
2022-10-14T07:27:37.203Z,96563.28
2022-10-14T07:30:07.058Z,96559.13
2022-10-14T07:32:37.773Z,96563.41
2022-10-14T07:35:08.630Z,96565.91
2022-10-14T07:37:36.688Z,96563.47
2022-10-14T07:40:05.622Z,96565.09
2022-10-14T07:42:33.781Z,96564.63
2022-10-14T07:45:02.584Z,96567.06
2022-10-14T07:47:31.072Z,96573.72
2022-10-14T07:49:59.232Z,96567.25
2022-10-14T07:52:28.876Z,96569.31
2022-10-14T07:54:56.961Z,96570.03
2022-10-14T07:57:25.538Z,96562.88
2022-10-14T07:59:53.762Z,96568.03
2022-10-14T08:02:22.100Z,96561.47
2022-10-14T08:05:04.084Z,96569.50
2022-10-14T08:07:42.805Z,96564.44
2022-10-14T08:10:10.880Z,96559.78
2022-10-14T08:12:38.991Z,96556.66
2022-10-14T08:15:08.253Z,96561.50
2022-10-14T08:17:36.286Z,96555.13
2022-10-14T08:20:05.185Z,96564.13
2022-10-14T08:22:33.205Z,96557.31
2022-10-14T08:25:02.615Z,96558.19
2022-10-14T08:27:30.694Z,96563.50
2022-10-14T08:29:58.733Z,96556.69
2022-10-14T08:32:26.785Z,96545.72
2022-10-14T08:34:55.912Z,96549.22
2022-10-14T08:37:24.208Z,96552.28
2022-10-14T08:39:52.261Z,96544.75
2022-10-14T08:42:39.290Z,96541.88
2022-10-14T08:45:15.311Z,96540.00
2022-10-14T08:47:47.338Z,96538.97
2022-10-14T08:50:29.159Z,96540.06
2022-10-14T08:53:03.537Z,96542.56
2022-10-14T08:55:37.601Z,96543.97
2022-10-14T08:58:15.802Z,96539.50
2022-10-14T09:00:47.687Z,96541.81
2022-10-14T09:03:22.223Z,96539.97
2022-10-14T09:05:58.526Z,96541.38
2022-10-14T09:08:34.336Z,96535.63
2022-10-14T09:11:02.660Z,96539.63
2022-10-14T09:13:37.895Z,96525.78
2022-10-14T09:16:10.764Z,96535.44
2022-10-14T09:18:43.407Z,96533.94
2022-10-14T09:21:40.889Z,96531.34
2022-10-14T09:24:21.368Z,96532.19
2022-10-14T09:26:53.406Z,96533.13
2022-10-14T09:29:28.893Z,96528.13
2022-10-14T09:31:59.858Z,96531.25
2022-10-14T09:34:35.540Z,96527.53
2022-10-14T09:37:23.691Z,96532.22
2022-10-14T09:39:55.239Z,96524.75
2022-10-14T09:42:34.705Z,96524.44
2022-10-14T09:45:13.062Z,96520.19
2022-10-14T09:47:51.130Z,96512.75
2022-10-14T09:50:27.101Z,96510.31
2022-10-14T09:53:05.365Z,96513.53
2022-10-14T09:55:36.546Z,96521.50
2022-10-14T09:58:16.666Z,96511.97
2022-10-14T10:00:47.845Z,96506.09
2022-10-14T10:03:27.907Z,96502.69
2022-10-14T10:06:07.771Z,96498.13
2022-10-14T10:08:38.866Z,96491.19
2022-10-14T10:11:10.420Z,96497.13
2022-10-14T10:13:44.453Z,96491.25
2022-10-14T10:16:24.294Z,96485.38
2022-10-14T10:18:55.153Z,96482.78
2022-10-14T10:21:26.489Z,96488.38
2022-10-14T10:23:58.475Z,96480.72
2022-10-14T10:26:31.917Z,96480.75
2022-10-14T10:29:02.950Z,96479.66
2022-10-14T10:31:51.667Z,96472.84
2022-10-14T10:35:00.989Z,96472.34
2022-10-14T10:37:33.285Z,96469.16
2022-10-14T10:40:31.996Z,96462.78
2022-10-14T10:43:36.386Z,96456.66
2022-10-14T10:46:34.479Z,96459.06
2022-10-14T10:49:14.595Z,96444.75
2022-10-14T10:51:53.290Z,96448.97
2022-10-14T10:54:35.721Z,96446.03
2022-10-14T10:57:13.778Z,96448.97
2022-10-14T10:59:57.669Z,96448.47
2022-10-14T11:02:54.911Z,96446.81
2022-10-14T11:05:43.658Z,96450.78
2022-10-14T11:08:56.472Z,96450.38
2022-10-14T11:11:46.743Z,96448.03
2022-10-14T11:14:36.755Z,96438.47
2022-10-14T11:17:14.963Z,96436.88
2022-10-14T11:19:55.127Z,96425.91
2022-10-14T11:22:44.211Z,96419.06
2022-10-14T11:25:26.072Z,96419.31
2022-10-14T11:28:03.549Z,96413.75
2022-10-14T11:30:46.181Z,96415.59
2022-10-14T11:33:39.795Z,96410.25
2022-10-14T11:36:31.406Z,96411.84
2022-10-14T11:39:20.059Z,96405.72
2022-10-14T11:42:05.295Z,96408.44
2022-10-14T11:44:37.901Z,96400.47
2022-10-14T11:47:13.832Z,96396.75
2022-10-14T11:49:48.641Z,96391.66
2022-10-14T11:52:23.608Z,96390.97
2022-10-14T11:54:59.836Z,96385.19
2022-10-14T11:57:33.585Z,96382.28
2022-10-14T12:00:23.336Z,96380.72
2022-10-14T12:02:59.492Z,96369.84
2022-10-14T12:05:40.034Z,96366.41
2022-10-14T12:08:22.139Z,96354.22
2022-10-14T12:10:59.145Z,96361.38
2022-10-14T12:13:35.569Z,96358.47
2022-10-14T12:16:05.448Z,96359.03
2022-10-14T12:21:20.308Z,96355.00
2022-10-14T12:23:53.267Z,96361.72
2022-10-14T12:26:48.210Z,96359.56
2022-10-14T12:29:20.549Z,96348.69
2022-10-14T12:32:09.637Z,96347.34
2022-10-14T12:34:40.478Z,96350.84
2022-10-14T12:37:52.516Z,96340.72
2022-10-14T12:40:31.552Z,96340.19
2022-10-14T12:43:31.193Z,96334.38
2022-10-14T12:46:14.411Z,96342.38
2022-10-14T12:48:52.384Z,96332.28
2022-10-14T12:51:23.832Z,96337.03
2022-10-14T12:54:04.864Z,96331.75
2022-10-14T12:56:37.357Z,96325.88
2022-10-14T12:59:09.341Z,96327.41
2022-10-14T13:01:43.633Z,96331.97
2022-10-14T13:04:20.245Z,96330.16
2022-10-14T13:07:41.252Z,96333.38
2022-10-14T13:10:48.478Z,96333.88
2022-10-14T13:14:01.362Z,96334.16
2022-10-14T13:17:00.221Z,96333.88
2022-10-14T13:19:46.502Z,96330.16
2022-10-14T13:22:39.899Z,96330.97
2022-10-14T13:25:20.507Z,96322.50
2022-10-14T13:28:13.834Z,96317.44
2022-10-14T13:30:58.638Z,96327.81
2022-10-14T13:33:37.893Z,96325.16
2022-10-14T13:36:18.117Z,96334.97
2022-10-14T13:38:54.767Z,96337.63
2022-10-14T13:41:30.682Z,96333.38
2022-10-14T13:44:01.272Z,96334.47
2022-10-14T13:46:35.036Z,96325.91
2022-10-14T13:51:53.467Z,96328.06
2022-10-14T13:54:24.065Z,96339.72
2022-10-14T13:57:43.036Z,96344.19
2022-10-14T14:00:38.820Z,96349.75
2022-10-14T14:02:49.025Z,96342.00
2022-10-14T14:05:24.761Z,96338.53
2022-10-14T14:11:11.099Z,96330.81
2022-10-14T14:13:33.570Z,96318.81
2022-10-14T14:16:01.883Z,96323.38
2022-10-14T14:18:49.518Z,96308.44
2022-10-14T14:21:28.623Z,96303.34
2022-10-14T14:23:58.744Z,96307.06
2022-10-14T14:26:33.691Z,96304.94
2022-10-14T14:29:06.229Z,96308.16
2022-10-14T14:32:05.067Z,96311.31
2022-10-14T14:34:25.079Z,96306.25
2022-10-14T14:37:01.316Z,96305.19
2022-10-14T14:39:34.951Z,96311.81
2022-10-14T14:42:03.523Z,96309.16
2022-10-14T14:44:34.743Z,96296.38
2022-10-14T14:47:06.053Z,96295.59
2022-10-14T14:49:39.239Z,96294.25
2022-10-14T14:52:12.638Z,96297.72
2022-10-14T14:54:46.510Z,96290.28
2022-10-14T14:57:19.688Z,96299.06
2022-10-14T14:59:58.249Z,96294.00
2022-10-14T15:02:26.506Z,96296.66
2022-10-14T15:05:03.442Z,96305.69
2022-10-14T15:07:33.343Z,96303.84
2022-10-14T15:10:05.245Z,96298.78
2022-10-14T15:12:39.094Z,96304.09
2022-10-14T15:15:26.714Z,96307.00
2022-10-14T15:18:14.933Z,96311.50
2022-10-14T15:20:44.231Z,96306.47
2022-10-14T15:23:43.582Z,96302.16
2022-10-14T15:26:31.330Z,96292.59
2022-10-14T15:32:15.005Z,96291.50
2022-10-14T15:34:43.100Z,96287.28
2022-10-14T15:37:14.704Z,96287.28
2022-10-14T15:39:44.399Z,96274.75
2022-10-14T15:42:13.312Z,96279.28
2022-10-14T15:44:41.294Z,96270.78
2022-10-14T15:47:22.445Z,96271.31
2022-10-14T15:49:50.739Z,96265.44
2022-10-14T15:52:21.590Z,96263.31
2022-10-14T15:54:53.774Z,96267.03
2022-10-14T15:57:22.295Z,96277.09
2022-10-14T15:59:52.643Z,96268.31
2022-10-14T16:02:33.240Z,96268.03
2022-10-14T16:07:50.448Z,96263.22
2022-10-14T16:10:22.878Z,96262.69
2022-10-14T16:12:51.189Z,96257.88
2022-10-14T16:15:35.113Z,96262.13
2022-10-14T16:18:03.165Z,96255.72
2022-10-14T16:20:31.693Z,96261.84
2022-10-14T16:23:01.386Z,96260.53
2022-10-14T16:25:36.073Z,96266.91
2022-10-14T16:28:29.897Z,96268.50
2022-10-14T16:30:59.858Z,96262.34
2022-10-14T16:33:28.158Z,96259.94
2022-10-14T16:35:58.108Z,96261.81
2022-10-14T16:38:26.246Z,96266.34
2022-10-14T16:41:00.320Z,96265.25
2022-10-14T16:43:29.851Z,96262.84
2022-10-14T16:46:00.557Z,96267.09
2022-10-14T16:48:29.669Z,96261.50
2022-10-14T16:50:58.025Z,96260.41
2022-10-14T16:53:43.569Z,96266.78
2022-10-14T16:56:34.206Z,96274.22
2022-10-14T16:59:03.634Z,96260.38
2022-10-14T17:01:32.315Z,96256.41
2022-10-14T17:04:00.484Z,96261.97
2022-10-14T17:06:29.006Z,96260.38
2022-10-14T17:08:57.207Z,96244.97
2022-10-14T17:11:28.076Z,96238.06
2022-10-14T17:13:57.942Z,96236.47
2022-10-14T17:16:26.974Z,96243.91
2022-10-14T17:18:55.167Z,96248.41
2022-10-14T17:21:24.233Z,96239.06
2022-10-14T17:23:52.224Z,96247.59
2022-10-14T17:26:20.932Z,96247.59
2022-10-14T17:28:50.866Z,96251.84
2022-10-14T17:31:21.538Z,96242.25
2022-10-14T17:33:50.235Z,96244.91
2022-10-14T17:36:20.575Z,96255.25
2022-10-14T17:38:51.860Z,96251.81
2022-10-14T17:41:20.547Z,96242.75
2022-10-14T17:43:51.808Z,96246.19
2022-10-14T17:46:23.365Z,96238.75
2022-10-14T17:48:54.362Z,96248.81
2022-10-14T17:51:24.380Z,96250.69
2022-10-14T17:53:55.108Z,96237.41
2022-10-14T17:56:23.505Z,96245.88
2022-10-14T17:58:57.920Z,96233.13
2022-10-14T18:01:37.317Z,96241.66
2022-10-14T18:04:12.072Z,96232.88
2022-10-14T18:06:40.373Z,96228.88
2022-10-14T18:09:10.532Z,96228.38
2022-10-14T18:12:07.684Z,96223.03
2022-10-14T18:14:33.440Z,96229.94
2022-10-14T18:17:01.782Z,96233.59
2022-10-14T18:19:30.157Z,96219.28
2022-10-14T18:21:58.287Z,96223.03
2022-10-14T18:24:27.070Z,96215.56
2022-10-14T18:26:55.101Z,96206.50
2022-10-14T18:29:24.532Z,96206.47
2022-10-14T18:31:53.894Z,96209.66
2022-10-14T18:34:24.882Z,96206.47
2022-10-14T18:36:53.330Z,96208.06
2022-10-14T18:39:21.533Z,96204.84
2022-10-14T18:41:49.790Z,96202.44
2022-10-14T18:44:19.406Z,96197.94
2022-10-14T18:46:48.484Z,96194.47
2022-10-14T18:49:18.278Z,96188.91
2022-10-14T18:51:46.619Z,96192.63
2022-10-14T18:54:18.093Z,96184.91
2022-10-14T18:56:47.182Z,96182.72
2022-10-14T18:59:18.177Z,96179.84
2022-10-14T19:01:47.608Z,96177.38
2022-10-14T19:04:18.689Z,96167.25
2022-10-14T19:06:48.602Z,96164.34
2022-10-14T19:09:17.428Z,96164.94
2022-10-14T19:11:47.696Z,96152.91
2022-10-14T19:14:15.735Z,96157.94
2022-10-14T19:16:44.456Z,96153.97
2022-10-14T19:19:16.727Z,96143.59
2022-10-14T19:21:49.536Z,96148.59
2022-10-14T19:24:18.070Z,96141.16
2022-10-14T19:26:49.852Z,96139.38
2022-10-14T19:29:18.246Z,96134.78
2022-10-14T19:31:46.367Z,96132.94
2022-10-14T19:34:16.691Z,96123.69
2022-10-14T19:36:47.140Z,96128.13
2022-10-14T19:39:18.788Z,96123.91
2022-10-14T19:41:47.478Z,96119.09
2022-10-14T19:44:17.267Z,96121.50
2022-10-14T19:46:46.274Z,96117.44
2022-10-14T19:49:16.161Z,96126.44
2022-10-14T19:51:45.142Z,96115.53
2022-10-14T19:54:15.168Z,96117.13
2022-10-14T19:56:43.461Z,96108.63
2022-10-14T19:59:17.005Z,96109.41
2022-10-14T20:01:45.253Z,96108.63
2022-10-14T20:04:13.467Z,96111.78
2022-10-14T20:06:42.875Z,96101.97
2022-10-14T20:09:14.910Z,96102.22
2022-10-14T20:11:44.050Z,96097.19
2022-10-14T20:14:12.142Z,96088.13
2022-10-14T20:16:40.269Z,96088.91
2022-10-14T20:19:08.392Z,96088.91
2022-10-14T20:21:36.445Z,96085.94
2022-10-14T20:24:05.271Z,96079.28
2022-10-14T20:26:36.051Z,96084.53
2022-10-14T20:29:04.228Z,96082.13
2022-10-14T20:31:32.298Z,96086.69
2022-10-14T20:34:00.457Z,96070.72
2022-10-14T20:36:28.654Z,96074.63
2022-10-14T20:38:56.673Z,96071.69
2022-10-14T20:41:27.286Z,96067.75
2022-10-14T20:43:58.093Z,96067.22
2022-10-14T20:46:26.201Z,96065.56
2022-10-14T20:48:55.956Z,96062.38
2022-10-14T20:51:24.541Z,96069.03
2022-10-14T20:54:01.800Z,96066.94
2022-10-14T20:56:34.370Z,96059.72
2022-10-14T20:59:07.403Z,96065.28
2022-10-14T21:01:37.553Z,96066.84
2022-10-14T21:04:07.883Z,96057.56
2022-10-14T21:06:38.561Z,96062.91
2022-10-14T21:09:07.343Z,96051.53
2022-10-14T21:11:35.485Z,96048.31
2022-10-14T21:14:05.100Z,96045.97
2022-10-14T21:16:35.330Z,96046.97
2022-10-14T21:19:07.463Z,96041.38
2022-10-14T21:21:39.126Z,96033.97
2022-10-14T21:24:08.745Z,96035.59
2022-10-14T21:26:36.788Z,96030.81
2022-10-14T21:29:06.643Z,96026.25
2022-10-14T21:31:34.995Z,96031.00
2022-10-14T21:34:06.605Z,96017.16
2022-10-14T21:36:35.548Z,96024.63
2022-10-14T21:39:07.573Z,96016.44
2022-10-14T21:41:36.005Z,96006.09
2022-10-14T21:44:06.913Z,96005.31
2022-10-14T21:46:36.442Z,96004.28
2022-10-14T21:49:04.955Z,96006.09
2022-10-14T21:51:33.877Z,95999.78
2022-10-14T21:54:01.927Z,95994.47
2022-10-14T21:56:30.359Z,95990.28
2022-10-14T21:58:59.338Z,95996.59
2022-10-14T22:01:30.868Z,95988.66
2022-10-14T22:04:00.893Z,95994.97
2022-10-14T22:06:29.454Z,95985.38
2022-10-14T22:09:00.501Z,95987.84
2022-10-14T22:11:31.216Z,95980.16
2022-10-14T22:14:02.007Z,95972.22
2022-10-14T22:16:37.573Z,95970.31
2022-10-14T22:19:07.834Z,95971.13
2022-10-14T22:21:39.329Z,95964.50
2022-10-14T22:24:09.575Z,95963.22
2022-10-14T22:26:40.533Z,95961.59
2022-10-14T22:29:13.635Z,95962.13
2022-10-14T22:31:43.692Z,95956.25
2022-10-14T22:34:15.629Z,95952.06
2022-10-14T22:36:44.463Z,95958.44
2022-10-14T22:39:15.138Z,95955.00
2022-10-14T22:41:43.403Z,95961.66
2022-10-14T22:44:12.389Z,95961.13
2022-10-14T22:46:42.579Z,95951.31
2022-10-14T22:49:10.906Z,95945.72
2022-10-14T22:51:41.226Z,95947.28
2022-10-14T22:54:10.150Z,95939.34
2022-10-14T22:56:39.152Z,95934.81
2022-10-14T22:59:09.539Z,95946.00
2022-10-14T23:01:38.445Z,95938.81
2022-10-14T23:04:08.296Z,95940.41
2022-10-14T23:06:36.385Z,95935.06
2022-10-14T23:09:05.840Z,95936.69
2022-10-14T23:11:33.940Z,95933.78
2022-10-14T23:14:06.161Z,95932.75
2022-10-14T23:16:36.233Z,95929.81
2022-10-14T23:19:04.751Z,95932.44
2022-10-14T23:21:36.188Z,95930.84
2022-10-14T23:24:08.010Z,95922.69
2022-10-14T23:26:37.018Z,95918.94
2022-10-14T23:29:08.147Z,95919.72
2022-10-14T23:31:38.112Z,95914.69
2022-10-14T23:34:12.579Z,95917.59
2022-10-14T23:36:42.510Z,95912.06
2022-10-14T23:39:10.884Z,95908.06
2022-10-14T23:41:39.350Z,95913.63
2022-10-14T23:44:07.397Z,95911.28
2022-10-14T23:46:35.434Z,95911.25
2022-10-14T23:49:21.162Z,95910.72
2022-10-14T23:51:53.034Z,95908.28
2022-10-14T23:54:21.057Z,95913.34
2022-10-14T23:56:49.147Z,95908.06
2022-10-14T23:59:17.364Z,95912.06
